Portada
METAR-TAF:

METAR-TAF

Aeroports :

Olive Branch Airport

Olive Branch, Mississipí, Estats Units d'Amèrica

latitud: 34-58-44N, longitud: 089-47-13W, altitud: 122 m

Observació

L'informe es va fer fa 40 minuts, a les 06:15 UTC
Vent 5 kt del Est
Temperatura 23°C
Humitat 78%
Pressió 1023 hPa
Visibilitat: 16.1 km
Cel clar

METAR: KOLV 200615Z AUTO 09005KT 10SM CLR 23/19 A3020 RMK A01

Hora: 01:55 (06:55 UTC)


TAF: manca

Observacions i pronòstics meteorològics de més de 4000 aeroports (METAR i TAF).

Les estacions disponibles són els punts grocs i vermells al mapa.

Posi el ratolí al punt desitjat per veure el nom de l'estació.

Feu clic per veure les observacions i els pronòstics meteorològics.

Per canviar el mapa: feu clic els botons verds amb una creu de color negre per apropar; al botó verd amb un guió per allunyar la imatge; o en les fletxes verdes per a mapes adjacents.


METAR-TAF: